createdAt,value
2023-02-11T00:00:47.336Z,21.50
2023-02-11T00:03:13.961Z,22.93
2023-02-11T00:05:40.492Z,22.43
2023-02-11T00:08:07.029Z,21.03
2023-02-11T00:10:33.614Z,22.00
2023-02-11T00:13:00.140Z,19.53
2023-02-11T00:15:26.686Z,23.13
2023-02-11T00:17:54.561Z,19.90
2023-02-11T00:20:21.048Z,19.13
2023-02-11T00:22:47.574Z,18.80
2023-02-11T00:25:14.081Z,19.50
2023-02-11T00:27:40.594Z,21.63
2023-02-11T00:30:08.337Z,19.57
2023-02-11T00:32:34.882Z,20.00
2023-02-11T00:35:02.802Z,22.13
2023-02-11T00:37:29.306Z,22.10
2023-02-11T00:39:55.826Z,21.23
2023-02-11T00:42:22.327Z,21.83
2023-02-11T00:44:48.846Z,19.30
2023-02-11T00:47:15.397Z,19.57
2023-02-11T00:49:41.875Z,18.00
2023-02-11T00:52:09.790Z,20.27
2023-02-11T00:54:36.294Z,19.70
2023-02-11T00:57:02.824Z,18.43
2023-02-11T00:59:29.360Z,15.60
2023-02-11T01:01:56.012Z,17.03
2023-02-11T01:04:22.683Z,18.63
2023-02-11T01:06:49.211Z,16.33
2023-02-11T01:09:17.107Z,18.37
2023-02-11T01:11:43.678Z,19.73
2023-02-11T01:14:10.253Z,16.17
2023-02-11T01:16:36.779Z,17.37
2023-02-11T01:19:03.316Z,17.20
2023-02-11T01:21:29.785Z,18.43
2023-02-11T01:23:56.310Z,16.30
2023-02-11T01:26:24.240Z,16.07
2023-02-11T01:28:50.836Z,16.63
2023-02-11T01:31:17.500Z,20.33
2023-02-11T01:33:44.043Z,19.63
2023-02-11T01:36:11.593Z,18.73
2023-02-11T01:38:38.142Z,19.13
2023-02-11T01:41:07.181Z,18.87
2023-02-11T01:43:37.365Z,20.43
2023-02-11T01:46:23.458Z,23.23
2023-02-11T01:48:55.032Z,23.63
2023-02-11T01:51:27.162Z,20.07
2023-02-11T01:53:55.261Z,20.87
2023-02-11T01:56:23.895Z,25.03
2023-02-11T01:58:55.530Z,19.20
2023-02-11T02:01:25.132Z,19.30
2023-02-11T02:03:54.721Z,20.23
2023-02-11T02:06:27.840Z,16.97
2023-02-11T02:08:59.628Z,19.87
2023-02-11T02:11:26.180Z,21.07
2023-02-11T02:13:54.087Z,23.30
2023-02-11T02:16:24.641Z,18.43
2023-02-11T02:19:00.430Z,23.07
2023-02-11T02:21:49.281Z,22.40
2023-02-11T02:24:41.258Z,20.97
2023-02-11T02:27:29.340Z,20.90
2023-02-11T02:30:33.395Z,18.23
2023-02-11T02:33:23.460Z,19.10
2023-02-11T02:35:57.636Z,19.70
2023-02-11T02:38:29.673Z,18.83
2023-02-11T02:41:01.364Z,15.53
2023-02-11T02:43:29.277Z,17.03
2023-02-11T02:45:56.170Z,20.70
2023-02-11T02:48:26.325Z,18.93
2023-02-11T02:51:03.552Z,16.53
2023-02-11T02:53:41.288Z,16.63
2023-02-11T02:56:13.064Z,16.37
2023-02-11T02:58:53.577Z,17.40
2023-02-11T03:01:31.187Z,17.07
2023-02-11T03:04:10.513Z,15.33
2023-02-11T03:06:46.559Z,15.77
2023-02-11T03:09:16.294Z,16.70
2023-02-11T03:11:42.887Z,15.33
2023-02-11T03:14:14.484Z,15.63
2023-02-11T03:16:43.647Z,17.07
2023-02-11T03:19:14.880Z,16.73
2023-02-11T03:21:42.930Z,16.70
2023-02-11T03:24:14.490Z,19.83
2023-02-11T03:26:44.833Z,20.43
2023-02-11T03:29:18.485Z,17.40
2023-02-11T03:31:54.491Z,17.60
2023-02-11T03:34:29.485Z,18.63
2023-02-11T03:37:00.308Z,16.33
2023-02-11T03:39:31.645Z,16.17
2023-02-11T03:42:00.255Z,17.47
2023-02-11T03:44:33.561Z,16.50
2023-02-11T03:47:02.532Z,21.23
2023-02-11T03:49:33.510Z,17.47
2023-02-11T03:52:02.127Z,18.73
2023-02-11T03:54:30.755Z,18.63
2023-02-11T03:56:59.291Z,19.87
2023-02-11T03:59:26.080Z,16.40
2023-02-11T04:01:52.976Z,17.27
2023-02-11T04:04:19.793Z,17.73
2023-02-11T04:06:47.681Z,17.63
2023-02-11T04:09:14.230Z,17.23
2023-02-11T04:11:40.798Z,19.77
2023-02-11T04:14:07.350Z,19.00
2023-02-11T04:16:33.905Z,15.73
2023-02-11T04:19:00.447Z,15.80
2023-02-11T04:21:28.037Z,14.80
2023-02-11T04:23:55.900Z,14.63
2023-02-11T04:26:22.403Z,15.80
2023-02-11T04:28:48.894Z,16.17
2023-02-11T04:31:15.459Z,16.53
2023-02-11T04:33:42.032Z,17.63
2023-02-11T04:36:08.600Z,16.70
2023-02-11T04:38:35.144Z,14.67
2023-02-11T04:41:03.063Z,17.33
2023-02-11T04:43:29.573Z,17.13
2023-02-11T04:45:57.418Z,16.30
2023-02-11T04:48:24.118Z,17.13
2023-02-11T04:50:50.649Z,16.17
2023-02-11T04:53:17.244Z,16.33
2023-02-11T04:55:43.784Z,19.70
2023-02-11T04:58:11.624Z,17.13
2023-02-11T05:00:38.145Z,18.90
2023-02-11T05:03:04.641Z,17.70
2023-02-11T05:05:31.122Z,16.30
2023-02-11T05:07:57.627Z,15.80
2023-02-11T05:10:24.141Z,15.83
2023-02-11T05:12:50.715Z,16.40
2023-02-11T05:15:18.608Z,14.73
2023-02-11T05:17:45.355Z,14.43
2023-02-11T05:20:12.062Z,13.77
2023-02-11T05:22:38.587Z,13.70
2023-02-11T05:25:05.890Z,14.67
2023-02-11T05:27:32.496Z,14.23
2023-02-11T05:29:58.998Z,13.27
2023-02-11T05:32:26.830Z,15.70
2023-02-11T05:34:53.390Z,15.03
2023-02-11T05:37:19.962Z,17.33
2023-02-11T05:39:46.653Z,16.17
2023-02-11T05:42:13.900Z,14.57
2023-02-11T05:44:40.429Z,15.13
2023-02-11T05:47:07.293Z,15.83
2023-02-11T05:49:35.418Z,17.60
2023-02-11T05:52:01.917Z,18.50
2023-02-11T05:54:28.478Z,17.30
2023-02-11T05:56:55.004Z,14.50
2023-02-11T05:59:21.509Z,14.70
2023-02-11T06:01:48.048Z,13.73
2023-02-11T06:04:14.624Z,16.70
2023-02-11T06:06:42.528Z,18.23
2023-02-11T06:09:09.835Z,18.20
2023-02-11T06:11:36.370Z,17.10
2023-02-11T06:14:03.038Z,18.30
2023-02-11T06:16:29.674Z,17.03
2023-02-11T06:18:56.270Z,18.57
2023-02-11T06:21:25.059Z,18.03
2023-02-11T06:23:54.377Z,19.87
2023-02-11T06:26:23.025Z,19.20
2023-02-11T06:28:49.629Z,16.83
2023-02-11T06:31:16.508Z,18.13
2023-02-11T06:33:43.438Z,17.70
2023-02-11T06:36:14.620Z,15.77
2023-02-11T06:38:41.244Z,20.33
2023-02-11T06:41:11.107Z,20.03
2023-02-11T06:43:37.596Z,17.90
2023-02-11T06:46:04.568Z,17.57
2023-02-11T06:48:31.171Z,16.03
2023-02-11T06:51:01.535Z,18.93
2023-02-11T06:53:28.044Z,17.37
2023-02-11T06:55:54.582Z,18.03
2023-02-11T06:58:22.555Z,20.63
2023-02-11T07:00:49.063Z,19.83
2023-02-11T07:03:15.641Z,23.60
2023-02-11T07:05:42.680Z,28.67
2023-02-11T07:08:09.325Z,33.03
2023-02-11T07:10:35.834Z,32.43
2023-02-11T07:13:02.378Z,24.73
2023-02-11T07:15:30.280Z,21.23
2023-02-11T07:17:56.848Z,18.80
2023-02-11T07:20:23.378Z,15.43
2023-02-11T07:22:49.939Z,15.60
2023-02-11T07:25:16.512Z,15.70
2023-02-11T07:27:43.067Z,13.83
2023-02-11T07:30:11.273Z,15.57
2023-02-11T07:32:39.141Z,14.10
2023-02-11T07:35:06.150Z,18.80
2023-02-11T07:37:33.664Z,17.47
2023-02-11T07:40:00.220Z,21.70
2023-02-11T07:42:26.758Z,18.53
2023-02-11T07:44:53.269Z,17.07
2023-02-11T07:47:19.754Z,16.20
2023-02-11T07:49:47.666Z,15.20
2023-02-11T07:52:14.268Z,15.73
2023-02-11T07:54:40.906Z,15.90
2023-02-11T07:57:07.415Z,14.07
2023-02-11T07:59:34.076Z,17.43
2023-02-11T08:02:00.695Z,18.47
2023-02-11T08:04:27.270Z,18.03
2023-02-11T08:06:57.772Z,18.03
2023-02-11T08:09:25.138Z,14.90
2023-02-11T08:11:51.699Z,15.90
2023-02-11T08:14:18.200Z,18.73
2023-02-11T08:16:44.829Z,19.10
2023-02-11T08:19:14.264Z,23.40
2023-02-11T08:21:41.485Z,25.00
2023-02-11T08:24:10.001Z,24.40
2023-02-11T08:26:36.670Z,23.17
2023-02-11T08:29:07.368Z,21.40
2023-02-11T08:31:36.005Z,18.87
2023-02-11T08:34:02.950Z,16.93
2023-02-11T08:36:33.833Z,15.30
2023-02-11T08:39:17.628Z,13.60
2023-02-11T08:41:47.684Z,12.97
2023-02-11T08:44:14.282Z,13.97
2023-02-11T08:46:40.770Z,15.03
2023-02-11T08:49:07.262Z,13.73
2023-02-11T08:51:33.877Z,16.03
2023-02-11T08:54:00.710Z,16.17
2023-02-11T08:56:28.063Z,14.73
2023-02-11T08:58:55.955Z,15.50
2023-02-11T09:01:24.462Z,18.20
2023-02-11T09:03:51.516Z,15.67
2023-02-11T09:06:18.560Z,13.43
2023-02-11T09:08:47.846Z,15.10
2023-02-11T09:11:15.072Z,14.67
2023-02-11T09:13:42.953Z,14.33
2023-02-11T09:16:17.208Z,12.57
2023-02-11T09:18:43.739Z,14.60
2023-02-11T09:21:10.250Z,14.40
2023-02-11T09:23:36.765Z,15.80
2023-02-11T09:26:08.172Z,16.07
2023-02-11T09:28:35.725Z,13.83
2023-02-11T09:31:05.657Z,17.37
2023-02-11T09:33:33.631Z,17.13
2023-02-11T09:36:00.839Z,14.63
2023-02-11T09:38:27.373Z,12.97
2023-02-11T09:40:54.032Z,15.83
2023-02-11T09:43:22.666Z,16.50
2023-02-11T09:45:50.107Z,16.13
2023-02-11T09:48:20.013Z,13.60
2023-02-11T09:50:51.391Z,14.23
2023-02-11T09:53:22.618Z,14.97
2023-02-11T09:55:52.281Z,15.00
2023-02-11T09:58:25.977Z,14.43
2023-02-11T10:01:02.097Z,15.17
2023-02-11T10:03:47.966Z,15.27
2023-02-11T10:06:32.646Z,16.80
2023-02-11T10:09:11.397Z,14.90
2023-02-11T10:11:52.264Z,14.77
2023-02-11T10:14:36.734Z,15.60
2023-02-11T10:17:14.505Z,12.63
2023-02-11T10:19:51.360Z,17.23
2023-02-11T10:22:24.590Z,14.73
2023-02-11T10:24:54.142Z,16.77
2023-02-11T10:27:24.332Z,17.93
2023-02-11T10:29:55.132Z,17.10
2023-02-11T10:32:29.349Z,16.60
2023-02-11T10:35:00.122Z,15.10
2023-02-11T10:37:28.181Z,13.40
2023-02-11T10:39:54.750Z,16.23
2023-02-11T10:42:21.286Z,12.87
2023-02-11T10:44:57.539Z,14.00
2023-02-11T10:47:27.019Z,18.43
2023-02-11T10:49:53.818Z,15.23
2023-02-11T10:52:22.891Z,13.60
2023-02-11T10:54:58.880Z,15.47
2023-02-11T10:57:30.067Z,14.50
2023-02-11T11:00:02.940Z,13.60
2023-02-11T11:02:31.248Z,14.90
2023-02-11T11:05:00.625Z,14.67
2023-02-11T11:07:29.102Z,15.07
2023-02-11T11:10:00.242Z,14.43
2023-02-11T11:12:30.179Z,14.07
2023-02-11T11:14:59.049Z,14.00
2023-02-11T11:17:25.883Z,12.80
2023-02-11T11:19:52.460Z,15.00
2023-02-11T11:22:21.788Z,14.10
2023-02-11T11:24:49.662Z,11.80
2023-02-11T11:27:21.383Z,12.83
2023-02-11T11:29:50.330Z,13.63
2023-02-11T11:32:20.821Z,14.10
2023-02-11T11:34:50.905Z,13.53
2023-02-11T11:37:23.389Z,17.03
2023-02-11T11:39:56.594Z,13.67
2023-02-11T11:42:27.496Z,13.33
2023-02-11T11:44:59.185Z,15.83
2023-02-11T11:47:31.860Z,14.93
2023-02-11T11:50:25.880Z,14.93
2023-02-11T11:52:58.757Z,15.57
2023-02-11T11:55:29.220Z,16.57
2023-02-11T11:57:57.233Z,15.73
2023-02-11T12:00:28.976Z,14.40
2023-02-11T12:03:12.269Z,13.30
2023-02-11T12:05:46.834Z,11.50
2023-02-11T12:08:21.757Z,13.33
2023-02-11T12:11:05.521Z,17.33
2023-02-11T12:13:45.386Z,14.83
2023-02-11T12:16:23.887Z,13.33
2023-02-11T12:19:38.260Z,12.10
2023-02-11T12:22:27.835Z,12.57
2023-02-11T12:25:09.516Z,13.63
2023-02-11T12:27:50.619Z,11.17
2023-02-11T12:30:33.260Z,11.53
2023-02-11T12:33:08.594Z,12.40
2023-02-11T12:35:44.628Z,11.37
2023-02-11T12:38:28.573Z,11.70
2023-02-11T12:41:05.291Z,13.33
2023-02-11T12:43:35.710Z,11.70
2023-02-11T12:46:13.951Z,11.73
2023-02-11T12:49:00.392Z,9.77
2023-02-11T12:51:37.509Z,11.90
2023-02-11T12:54:19.969Z,12.20
2023-02-11T12:56:52.137Z,12.73
2023-02-11T12:59:33.151Z,12.93
2023-02-11T13:02:12.386Z,10.60
2023-02-11T13:04:43.304Z,11.70
2023-02-11T13:07:13.699Z,11.40
2023-02-11T13:09:45.473Z,13.13
2023-02-11T13:12:14.433Z,12.67
2023-02-11T13:14:41.598Z,13.53
2023-02-11T13:17:19.707Z,11.40
2023-02-11T13:19:51.282Z,11.03
2023-02-11T13:22:24.229Z,11.03
2023-02-11T13:24:55.183Z,12.27
2023-02-11T13:27:32.444Z,10.50
2023-02-11T13:30:23.471Z,12.13
2023-02-11T13:33:30.088Z,11.67
2023-02-11T13:36:16.202Z,11.83
2023-02-11T13:38:52.820Z,11.00
2023-02-11T13:41:23.378Z,13.87
2023-02-11T13:43:59.259Z,11.10
2023-02-11T13:46:27.514Z,12.43
2023-02-11T13:48:56.569Z,12.53
2023-02-11T13:51:36.434Z,11.30
2023-02-11T13:54:04.505Z,12.57
2023-02-11T13:56:32.939Z,13.00
2023-02-11T13:59:02.319Z,13.47
2023-02-11T14:01:58.665Z,15.03
2023-02-11T14:04:27.101Z,12.50
2023-02-11T14:07:28.720Z,10.60
2023-02-11T14:09:55.256Z,11.37
2023-02-11T14:12:35.598Z,11.83
2023-02-11T14:15:18.724Z,13.70
2023-02-11T14:17:45.489Z,11.03
2023-02-11T14:20:36.416Z,11.67
2023-02-11T14:23:04.005Z,12.57
2023-02-11T14:25:30.907Z,12.20
2023-02-11T14:28:03.025Z,13.17
2023-02-11T14:30:38.437Z,10.90
2023-02-11T14:33:18.644Z,12.17
2023-02-11T14:36:00.844Z,12.07
2023-02-11T14:38:34.255Z,12.33
2023-02-11T14:41:07.606Z,10.20
2023-02-11T14:43:38.712Z,12.30
2023-02-11T14:46:05.474Z,12.00
2023-02-11T14:48:34.886Z,12.67
2023-02-11T14:51:06.847Z,12.03
2023-02-11T14:53:34.758Z,12.00
2023-02-11T14:56:01.331Z,9.03
2023-02-11T14:58:29.507Z,9.23
2023-02-11T15:00:58.083Z,10.33
2023-02-11T15:03:26.386Z,12.57
2023-02-11T15:05:56.085Z,12.87
2023-02-11T15:08:24.125Z,12.87
2023-02-11T15:10:51.053Z,11.70
2023-02-11T15:13:20.879Z,11.43
2023-02-11T15:15:49.975Z,12.17
2023-02-11T15:18:20.745Z,11.47
2023-02-11T15:20:48.053Z,12.03
2023-02-11T15:23:22.535Z,14.07
2023-02-11T15:25:50.517Z,16.20
2023-02-11T15:28:22.208Z,13.70
2023-02-11T15:30:56.855Z,12.27
2023-02-11T15:33:23.577Z,12.00
2023-02-11T15:35:50.106Z,12.07
2023-02-11T15:38:16.624Z,10.80
2023-02-11T15:40:54.230Z,11.97
2023-02-11T15:43:20.761Z,11.47
2023-02-11T15:45:57.116Z,10.53
2023-02-11T15:48:26.236Z,9.97
2023-02-11T15:50:55.428Z,10.70
2023-02-11T15:53:25.525Z,10.50
2023-02-11T15:56:00.195Z,11.23
2023-02-11T15:58:26.799Z,10.30
2023-02-11T16:00:54.034Z,10.97
2023-02-11T16:03:22.525Z,12.70
2023-02-11T16:05:49.590Z,10.93
2023-02-11T16:08:22.468Z,11.77
2023-02-11T16:10:58.122Z,10.40
2023-02-11T16:13:25.611Z,13.60
2023-02-11T16:15:54.680Z,11.40
2023-02-11T16:18:38.316Z,13.30
2023-02-11T16:21:07.459Z,10.83
2023-02-11T16:23:36.872Z,11.37
2023-02-11T16:26:09.428Z,9.93
2023-02-11T16:28:37.020Z,11.10
2023-02-11T16:31:04.953Z,9.07
2023-02-11T16:33:31.629Z,11.00
2023-02-11T16:35:58.157Z,10.70
2023-02-11T16:38:24.710Z,13.33
2023-02-11T16:40:51.556Z,11.40
2023-02-11T16:43:20.210Z,12.13
2023-02-11T16:45:46.874Z,12.67
2023-02-11T16:48:17.108Z,13.00
2023-02-11T16:50:45.870Z,13.13
2023-02-11T16:53:12.590Z,13.43
2023-02-11T16:55:39.114Z,11.10
2023-02-11T16:58:05.614Z,10.67
2023-02-11T17:00:33.678Z,11.03
2023-02-11T17:03:00.299Z,10.07
2023-02-11T17:05:26.884Z,10.63
2023-02-11T17:07:53.422Z,9.53
2023-02-11T17:10:22.657Z,9.93
2023-02-11T17:12:49.989Z,9.17
2023-02-11T17:15:16.783Z,10.17
2023-02-11T17:17:44.747Z,9.77
2023-02-11T17:20:13.085Z,10.53
2023-02-11T17:22:40.094Z,9.43
2023-02-11T17:25:06.725Z,11.43
2023-02-11T17:27:33.387Z,11.33
2023-02-11T17:29:59.993Z,9.47
2023-02-11T17:32:26.517Z,13.17
2023-02-11T17:34:54.409Z,11.00
2023-02-11T17:37:21.056Z,11.10
2023-02-11T17:39:49.398Z,10.70
2023-02-11T17:42:15.952Z,13.67
2023-02-11T17:44:44.053Z,13.60
2023-02-11T17:47:10.597Z,13.10
2023-02-11T17:49:37.368Z,13.37
2023-02-11T17:52:05.240Z,13.17
2023-02-11T17:54:31.769Z,13.17
2023-02-11T17:56:58.636Z,15.00
2023-02-11T17:59:25.755Z,14.30
2023-02-11T18:01:52.282Z,14.63
2023-02-11T18:04:20.099Z,15.90
2023-02-11T18:06:46.744Z,16.53
2023-02-11T18:09:14.653Z,16.20
2023-02-11T18:11:41.570Z,14.53
2023-02-11T18:14:08.120Z,16.33
2023-02-11T18:16:35.888Z,16.00
2023-02-11T18:19:03.210Z,17.03
2023-02-11T18:21:29.753Z,13.23
2023-02-11T18:23:56.247Z,12.93
2023-02-11T18:26:24.334Z,14.63
2023-02-11T18:28:51.082Z,13.00
2023-02-11T18:31:17.737Z,13.20
2023-02-11T18:33:44.505Z,11.30
2023-02-11T18:36:13.436Z,10.90
2023-02-11T18:38:40.197Z,15.27
2023-02-11T18:41:07.208Z,26.03
2023-02-11T18:43:35.528Z,21.70
2023-02-11T18:46:03.022Z,20.10
2023-02-11T18:48:29.587Z,19.13
2023-02-11T18:50:56.310Z,16.13
2023-02-11T18:53:23.553Z,16.73
2023-02-11T18:55:51.322Z,17.10
2023-02-11T18:58:18.369Z,16.60
2023-02-11T19:00:47.826Z,14.60
2023-02-11T19:03:14.725Z,13.50
2023-02-11T19:05:41.540Z,15.63
2023-02-11T19:08:08.094Z,13.70
2023-02-11T19:10:34.689Z,13.20
2023-02-11T19:13:01.342Z,14.33
2023-02-11T19:15:30.377Z,13.80
2023-02-11T19:17:58.227Z,14.43
2023-02-11T19:20:24.771Z,17.37
2023-02-11T19:22:51.305Z,19.27
2023-02-11T19:25:18.085Z,16.93
2023-02-11T19:27:44.649Z,17.80
2023-02-11T19:30:11.911Z,16.60
2023-02-11T19:32:38.459Z,16.53
2023-02-11T19:35:07.221Z,17.07
2023-02-11T19:37:33.774Z,17.23
2023-02-11T19:40:00.360Z,18.27
2023-02-11T19:42:27.680Z,17.90
2023-02-11T19:44:54.338Z,20.27
2023-02-11T19:47:20.914Z,27.17
2023-02-11T19:49:47.575Z,22.60
2023-02-11T19:52:15.427Z,21.80
2023-02-11T19:54:42.017Z,22.40
2023-02-11T19:57:08.552Z,20.10
2023-02-11T19:59:35.088Z,20.07
2023-02-11T20:02:01.686Z,20.47
2023-02-11T20:04:28.211Z,21.57
2023-02-11T20:06:54.711Z,18.30
2023-02-11T20:09:22.646Z,15.47
2023-02-11T20:11:49.211Z,13.80
2023-02-11T20:14:15.945Z,16.40
2023-02-11T20:16:48.684Z,22.03
2023-02-11T20:19:16.838Z,20.27
2023-02-11T20:21:46.685Z,16.37
2023-02-11T20:24:13.853Z,24.53
2023-02-11T20:26:41.832Z,20.33
2023-02-11T20:29:08.816Z,17.37
2023-02-11T20:31:35.577Z,13.37
2023-02-11T20:34:02.526Z,14.93
2023-02-11T20:36:32.004Z,12.33
2023-02-11T20:38:59.710Z,13.57
2023-02-11T20:41:28.148Z,13.03
2023-02-11T20:43:58.335Z,13.90
2023-02-11T20:46:26.783Z,13.13
2023-02-11T20:48:55.268Z,12.53
2023-02-11T20:51:23.979Z,13.53
2023-02-11T20:53:50.604Z,11.97
2023-02-11T20:56:19.655Z,12.47
2023-02-11T20:58:46.605Z,13.67
2023-02-11T21:01:17.674Z,11.93
2023-02-11T21:03:44.468Z,15.70
2023-02-11T21:06:11.522Z,15.83
2023-02-11T21:08:38.354Z,15.10
2023-02-11T21:11:05.310Z,14.30
2023-02-11T21:13:31.866Z,12.70
2023-02-11T21:15:58.561Z,11.93
2023-02-11T21:18:26.665Z,12.77
2023-02-11T21:20:54.529Z,13.10
2023-02-11T21:23:22.482Z,13.10
2023-02-11T21:25:49.102Z,14.70
2023-02-11T21:28:15.679Z,14.90
2023-02-11T21:30:42.346Z,16.60
2023-02-11T21:33:08.913Z,14.83
2023-02-11T21:35:37.563Z,14.33
2023-02-11T21:38:04.553Z,14.70
2023-02-11T21:40:31.049Z,16.20
2023-02-11T21:42:58.404Z,16.83
2023-02-11T21:45:25.465Z,17.57
2023-02-11T21:47:52.218Z,15.13
2023-02-11T21:50:18.926Z,17.87
2023-02-11T21:52:46.783Z,15.70
2023-02-11T21:55:13.312Z,17.43
2023-02-11T21:57:39.809Z,17.27
2023-02-11T22:00:07.996Z,15.93
2023-02-11T22:02:34.528Z,15.87
2023-02-11T22:05:01.168Z,13.33
2023-02-11T22:07:27.711Z,13.30
2023-02-11T22:09:55.588Z,13.53
2023-02-11T22:12:22.307Z,13.13
2023-02-11T22:14:48.843Z,13.13
2023-02-11T22:17:15.376Z,13.73
2023-02-11T22:19:41.964Z,13.73
2023-02-11T22:22:08.499Z,15.90
2023-02-11T22:24:35.266Z,13.37
2023-02-11T22:27:03.232Z,13.67
2023-02-11T22:29:29.722Z,13.67
2023-02-11T22:31:56.285Z,15.60
2023-02-11T22:34:22.836Z,14.67
2023-02-11T22:36:49.364Z,12.97
2023-02-11T22:39:17.013Z,12.47
2023-02-11T22:41:45.324Z,13.10
2023-02-11T22:44:13.743Z,16.60
2023-02-11T22:46:40.254Z,14.43
2023-02-11T22:49:06.900Z,15.13
2023-02-11T22:51:33.447Z,18.07
2023-02-11T22:54:02.038Z,26.53
2023-02-11T22:56:29.719Z,19.07
2023-02-11T22:58:57.233Z,18.83
2023-02-11T23:01:25.197Z,17.03
2023-02-11T23:03:51.824Z,17.63
2023-02-11T23:06:18.352Z,15.03
2023-02-11T23:08:45.105Z,14.17
2023-02-11T23:11:13.988Z,20.67
2023-02-11T23:13:42.008Z,17.77
2023-02-11T23:16:11.471Z,18.67
2023-02-11T23:18:41.062Z,18.23
2023-02-11T23:21:12.383Z,16.63
2023-02-11T23:23:39.205Z,15.90
2023-02-11T23:26:09.527Z,15.93
2023-02-11T23:28:36.087Z,14.43
2023-02-11T23:31:13.190Z,14.77
2023-02-11T23:33:41.044Z,16.83
2023-02-11T23:36:08.330Z,17.93
2023-02-11T23:38:34.893Z,18.20
2023-02-11T23:41:01.494Z,19.17
2023-02-11T23:43:28.029Z,17.97
2023-02-11T23:45:54.807Z,14.47
2023-02-11T23:48:21.497Z,15.30
2023-02-11T23:50:49.420Z,15.90
2023-02-11T23:53:15.931Z,13.50
2023-02-11T23:55:43.542Z,14.73
2023-02-11T23:58:11.408Z,13.70
